sensor_id;sensor_type;location;lat;lon;timestamp;temperature;humidity
7194;DHT22;3638;48.820;9.244;2022-08-19T00:01:22;21.90;95.00
7194;DHT22;3638;48.820;9.244;2022-08-19T00:03:50;21.90;95.30
7194;DHT22;3638;48.820;9.244;2022-08-19T00:06:17;21.70;95.50
7194;DHT22;3638;48.820;9.244;2022-08-19T00:08:44;21.70;95.20
7194;DHT22;3638;48.820;9.244;2022-08-19T00:11:11;21.70;95.30
7194;DHT22;3638;48.820;9.244;2022-08-19T00:13:39;21.60;95.50
7194;DHT22;3638;48.820;9.244;2022-08-19T00:16:07;21.50;95.50
7194;DHT22;3638;48.820;9.244;2022-08-19T00:18:34;21.60;95.50
7194;DHT22;3638;48.820;9.244;2022-08-19T00:21:01;21.60;95.40
7194;DHT22;3638;48.820;9.244;2022-08-19T00:23:35;21.70;95.30
7194;DHT22;3638;48.820;9.244;2022-08-19T00:26:03;21.70;95.40
7194;DHT22;3638;48.820;9.244;2022-08-19T00:28:31;21.60;95.30
7194;DHT22;3638;48.820;9.244;2022-08-19T00:30:59;21.70;95.30
7194;DHT22;3638;48.820;9.244;2022-08-19T00:33:27;21.70;95.40
7194;DHT22;3638;48.820;9.244;2022-08-19T00:35:55;21.60;95.50
7194;DHT22;3638;48.820;9.244;2022-08-19T00:38:22;21.50;95.80
7194;DHT22;3638;48.820;9.244;2022-08-19T00:40:49;21.50;95.60
7194;DHT22;3638;48.820;9.244;2022-08-19T00:43:20;21.50;95.60
7194;DHT22;3638;48.820;9.244;2022-08-19T00:45:48;21.50;95.70
7194;DHT22;3638;48.820;9.244;2022-08-19T00:48:15;21.50;95.70
7194;DHT22;3638;48.820;9.244;2022-08-19T00:50:44;21.50;95.60
7194;DHT22;3638;48.820;9.244;2022-08-19T00:53:15;21.40;95.70
7194;DHT22;3638;48.820;9.244;2022-08-19T00:55:45;21.50;95.80
7194;DHT22;3638;48.820;9.244;2022-08-19T00:58:17;21.40;95.80
7194;DHT22;3638;48.820;9.244;2022-08-19T01:00:48;21.50;95.90
7194;DHT22;3638;48.820;9.244;2022-08-19T01:03:18;21.50;95.60
7194;DHT22;3638;48.820;9.244;2022-08-19T01:05:49;21.60;95.50
7194;DHT22;3638;48.820;9.244;2022-08-19T01:08:18;21.60;95.60
7194;DHT22;3638;48.820;9.244;2022-08-19T01:10:48;21.70;95.50
7194;DHT22;3638;48.820;9.244;2022-08-19T01:13:19;21.60;95.50
7194;DHT22;3638;48.820;9.244;2022-08-19T01:15:50;21.60;95.40
7194;DHT22;3638;48.820;9.244;2022-08-19T01:18:21;21.60;95.50
7194;DHT22;3638;48.820;9.244;2022-08-19T01:20:49;21.60;95.60
7194;DHT22;3638;48.820;9.244;2022-08-19T01:23:18;21.60;95.70
7194;DHT22;3638;48.820;9.244;2022-08-19T01:25:50;21.60;95.60
7194;DHT22;3638;48.820;9.244;2022-08-19T01:28:21;21.50;95.70
7194;DHT22;3638;48.820;9.244;2022-08-19T01:30:51;21.40;95.90
7194;DHT22;3638;48.820;9.244;2022-08-19T01:33:19;21.50;95.90
7194;DHT22;3638;48.820;9.244;2022-08-19T01:35:46;21.50;95.80
7194;DHT22;3638;48.820;9.244;2022-08-19T01:38:22;21.50;95.80
7194;DHT22;3638;48.820;9.244;2022-08-19T01:40:51;21.50;95.80
7194;DHT22;3638;48.820;9.244;2022-08-19T01:43:18;21.40;95.90
7194;DHT22;3638;48.820;9.244;2022-08-19T01:48:14;21.50;95.90
7194;DHT22;3638;48.820;9.244;2022-08-19T01:53:11;21.30;96.20
7194;DHT22;3638;48.820;9.244;2022-08-19T01:55:42;21.30;96.20
7194;DHT22;3638;48.820;9.244;2022-08-19T01:58:12;21.20;96.40
7194;DHT22;3638;48.820;9.244;2022-08-19T02:00:43;21.20;96.60
7194;DHT22;3638;48.820;9.244;2022-08-19T02:03:11;21.20;96.50
7194;DHT22;3638;48.820;9.244;2022-08-19T02:05:39;21.20;96.40
7194;DHT22;3638;48.820;9.244;2022-08-19T02:08:07;21.20;96.50
7194;DHT22;3638;48.820;9.244;2022-08-19T02:10:41;21.20;96.40
7194;DHT22;3638;48.820;9.244;2022-08-19T02:13:10;21.20;96.60
7194;DHT22;3638;48.820;9.244;2022-08-19T02:15:38;21.20;96.70
7194;DHT22;3638;48.820;9.244;2022-08-19T02:18:06;21.20;96.70
7194;DHT22;3638;48.820;9.244;2022-08-19T02:20:33;21.10;96.90
7194;DHT22;3638;48.820;9.244;2022-08-19T02:23:01;21.10;96.90
7194;DHT22;3638;48.820;9.244;2022-08-19T02:27:56;21.10;97.00
7194;DHT22;3638;48.820;9.244;2022-08-19T02:30:24;21.10;97.00
7194;DHT22;3638;48.820;9.244;2022-08-19T02:40:31;21.10;97.10
7194;DHT22;3638;48.820;9.244;2022-08-19T02:43:01;21.10;97.10
7194;DHT22;3638;48.820;9.244;2022-08-19T02:45:31;21.00;97.30
7194;DHT22;3638;48.820;9.244;2022-08-19T02:47:59;20.90;97.50
7194;DHT22;3638;48.820;9.244;2022-08-19T02:57:48;20.90;97.60
7194;DHT22;3638;48.820;9.244;2022-08-19T03:00:16;20.90;97.70
7194;DHT22;3638;48.820;9.244;2022-08-19T03:02:44;20.90;97.60
7194;DHT22;3638;48.820;9.244;2022-08-19T03:10:07;20.70;97.90
7194;DHT22;3638;48.820;9.244;2022-08-19T03:12:36;20.80;97.80
7194;DHT22;3638;48.820;9.244;2022-08-19T03:15:05;20.80;97.90
7194;DHT22;3638;48.820;9.244;2022-08-19T03:17:34;20.70;97.80
7194;DHT22;3638;48.820;9.244;2022-08-19T03:20:02;20.80;97.90
7194;DHT22;3638;48.820;9.244;2022-08-19T03:22:30;20.80;98.00
7194;DHT22;3638;48.820;9.244;2022-08-19T03:24:57;20.70;97.90
7194;DHT22;3638;48.820;9.244;2022-08-19T03:34:48;20.40;98.50
7194;DHT22;3638;48.820;9.244;2022-08-19T03:37:16;20.50;98.40
7194;DHT22;3638;48.820;9.244;2022-08-19T03:42:11;20.60;98.20
7194;DHT22;3638;48.820;9.244;2022-08-19T03:44:38;20.50;98.20
7194;DHT22;3638;48.820;9.244;2022-08-19T03:49:33;20.60;98.20
7194;DHT22;3638;48.820;9.244;2022-08-19T03:52:02;20.60;98.20
7194;DHT22;3638;48.820;9.244;2022-08-19T03:54:34;20.60;98.20
7194;DHT22;3638;48.820;9.244;2022-08-19T03:57:03;20.50;98.20
7194;DHT22;3638;48.820;9.244;2022-08-19T03:59:33;24.90;99.50
7194;DHT22;3638;48.820;9.244;2022-08-19T04:02:07;20.60;98.10
7194;DHT22;3638;48.820;9.244;2022-08-19T04:04:36;20.60;98.10
7194;DHT22;3638;48.820;9.244;2022-08-19T04:07:06;20.60;98.20
7194;DHT22;3638;48.820;9.244;2022-08-19T04:09:34;20.60;98.40
7194;DHT22;3638;48.820;9.244;2022-08-19T04:12:03;20.60;98.10
7194;DHT22;3638;48.820;9.244;2022-08-19T04:14:31;20.50;98.40
7194;DHT22;3638;48.820;9.244;2022-08-19T04:17:00;20.40;98.60
7194;DHT22;3638;48.820;9.244;2022-08-19T04:19:30;20.50;98.50
7194;DHT22;3638;48.820;9.244;2022-08-19T04:21:58;20.40;98.60
7194;DHT22;3638;48.820;9.244;2022-08-19T04:24:26;20.50;98.40
7194;DHT22;3638;48.820;9.244;2022-08-19T04:29:23;20.40;98.50
7194;DHT22;3638;48.820;9.244;2022-08-19T04:31:53;20.30;98.70
7194;DHT22;3638;48.820;9.244;2022-08-19T04:34:23;20.40;98.60
7194;DHT22;3638;48.820;9.244;2022-08-19T04:36:53;20.30;98.80
7194;DHT22;3638;48.820;9.244;2022-08-19T04:39:26;20.30;98.70
7194;DHT22;3638;48.820;9.244;2022-08-19T04:42:09;20.10;99.10
7194;DHT22;3638;48.820;9.244;2022-08-19T04:44:54;20.10;99.10
7194;DHT22;3638;48.820;9.244;2022-08-19T04:47:21;20.10;99.20
7194;DHT22;3638;48.820;9.244;2022-08-19T04:49:48;20.20;99.10
7194;DHT22;3638;48.820;9.244;2022-08-19T04:52:15;20.20;99.00
7194;DHT22;3638;48.820;9.244;2022-08-19T04:54:43;20.40;98.70
7194;DHT22;3638;48.820;9.244;2022-08-19T04:57:10;20.40;98.70
7194;DHT22;3638;48.820;9.244;2022-08-19T04:59:38;20.40;98.80
7194;DHT22;3638;48.820;9.244;2022-08-19T05:02:07;20.30;98.80
7194;DHT22;3638;48.820;9.244;2022-08-19T05:04:36;20.40;98.80
7194;DHT22;3638;48.820;9.244;2022-08-19T05:07:05;20.30;98.90
7194;DHT22;3638;48.820;9.244;2022-08-19T05:09:32;20.30;98.90
7194;DHT22;3638;48.820;9.244;2022-08-19T05:12:00;20.40;98.90
7194;DHT22;3638;48.820;9.244;2022-08-19T05:14:27;20.40;98.80
7194;DHT22;3638;48.820;9.244;2022-08-19T05:16:54;20.50;98.60
7194;DHT22;3638;48.820;9.244;2022-08-19T05:19:21;20.50;98.50
7194;DHT22;3638;48.820;9.244;2022-08-19T05:22:05;20.50;98.80
7194;DHT22;3638;48.820;9.244;2022-08-19T05:24:50;20.50;98.70
7194;DHT22;3638;48.820;9.244;2022-08-19T05:27:18;20.50;98.60
7194;DHT22;3638;48.820;9.244;2022-08-19T05:29:45;20.60;98.50
7194;DHT22;3638;48.820;9.244;2022-08-19T05:32:12;20.70;98.40
7194;DHT22;3638;48.820;9.244;2022-08-19T05:34:39;19.70;98.10
7194;DHT22;3638;48.820;9.244;2022-08-19T05:37:06;20.50;98.50
7194;DHT22;3638;48.820;9.244;2022-08-19T05:39:36;20.70;98.70
7194;DHT22;3638;48.820;9.244;2022-08-19T05:42:06;20.80;98.10
7194;DHT22;3638;48.820;9.244;2022-08-19T05:44:37;20.80;98.20
7194;DHT22;3638;48.820;9.244;2022-08-19T05:47:10;20.70;98.30
7194;DHT22;3638;48.820;9.244;2022-08-19T05:49:40;20.70;98.20
7194;DHT22;3638;48.820;9.244;2022-08-19T05:52:10;20.60;98.40
7194;DHT22;3638;48.820;9.244;2022-08-19T05:54:41;20.70;98.30
7194;DHT22;3638;48.820;9.244;2022-08-19T05:57:08;20.60;98.40
7194;DHT22;3638;48.820;9.244;2022-08-19T05:59:37;20.40;98.70
7194;DHT22;3638;48.820;9.244;2022-08-19T06:02:05;20.40;98.80
7194;DHT22;3638;48.820;9.244;2022-08-19T06:04:33;20.30;98.90
7194;DHT22;3638;48.820;9.244;2022-08-19T06:07:00;20.40;99.00
7194;DHT22;3638;48.820;9.244;2022-08-19T06:09:28;20.40;99.20
7194;DHT22;3638;48.820;9.244;2022-08-19T06:11:56;20.50;99.20
7194;DHT22;3638;48.820;9.244;2022-08-19T06:14:28;20.60;98.90
7194;DHT22;3638;48.820;9.244;2022-08-19T06:16:58;20.60;99.20
7194;DHT22;3638;48.820;9.244;2022-08-19T06:19:28;20.60;99.10
7194;DHT22;3638;48.820;9.244;2022-08-19T06:21:57;20.50;99.40
7194;DHT22;3638;48.820;9.244;2022-08-19T06:24:27;20.50;99.60
7194;DHT22;3638;48.820;9.244;2022-08-19T06:26:57;20.60;99.70
7194;DHT22;3638;48.820;9.244;2022-08-19T06:29:26;20.70;99.60
7194;DHT22;3638;48.820;9.244;2022-08-19T06:31:55;20.50;99.90
7194;DHT22;3638;48.820;9.244;2022-08-19T06:34:26;20.40;99.90
7194;DHT22;3638;48.820;9.244;2022-08-19T06:36:55;20.50;99.90
7194;DHT22;3638;48.820;9.244;2022-08-19T06:39:27;20.60;99.90
7194;DHT22;3638;48.820;9.244;2022-08-19T06:41:57;20.50;99.90
7194;DHT22;3638;48.820;9.244;2022-08-19T06:44:27;20.50;99.90
7194;DHT22;3638;48.820;9.244;2022-08-19T06:46:55;20.60;99.90
7194;DHT22;3638;48.820;9.244;2022-08-19T06:49:24;20.60;99.90
7194;DHT22;3638;48.820;9.244;2022-08-19T06:51:52;20.80;99.80
7194;DHT22;3638;48.820;9.244;2022-08-19T06:54:22;20.60;99.60
7194;DHT22;3638;48.820;9.244;2022-08-19T06:56:50;20.50;99.90
7194;DHT22;3638;48.820;9.244;2022-08-19T06:59:18;20.60;99.90
7194;DHT22;3638;48.820;9.244;2022-08-19T07:01:47;20.50;99.90
7194;DHT22;3638;48.820;9.244;2022-08-19T07:04:17;20.60;99.90
7194;DHT22;3638;48.820;9.244;2022-08-19T07:06:47;20.80;99.90
7194;DHT22;3638;48.820;9.244;2022-08-19T07:09:15;20.80;99.90
7194;DHT22;3638;48.820;9.244;2022-08-19T07:11:45;21.10;99.80
7194;DHT22;3638;48.820;9.244;2022-08-19T07:14:13;20.90;99.60
7194;DHT22;3638;48.820;9.244;2022-08-19T07:16:41;21.00;99.30
7194;DHT22;3638;48.820;9.244;2022-08-19T07:19:08;20.90;99.30
7194;DHT22;3638;48.820;9.244;2022-08-19T07:21:35;20.80;99.40
7194;DHT22;3638;48.820;9.244;2022-08-19T07:24:05;21.00;99.60
7194;DHT22;3638;48.820;9.244;2022-08-19T07:26:33;21.00;99.00
7194;DHT22;3638;48.820;9.244;2022-08-19T07:29:05;21.10;99.10
7194;DHT22;3638;48.820;9.244;2022-08-19T07:34:03;21.00;98.80
7194;DHT22;3638;48.820;9.244;2022-08-19T07:36:32;21.00;98.80
7194;DHT22;3638;48.820;9.244;2022-08-19T07:39:08;20.90;98.90
7194;DHT22;3638;48.820;9.244;2022-08-19T07:44:06;20.90;99.00
7194;DHT22;3638;48.820;9.244;2022-08-19T07:46:35;20.80;99.30
7194;DHT22;3638;48.820;9.244;2022-08-19T07:49:04;20.80;99.40
7194;DHT22;3638;48.820;9.244;2022-08-19T07:51:32;20.90;99.50
7194;DHT22;3638;48.820;9.244;2022-08-19T07:53:59;20.90;99.30
7194;DHT22;3638;48.820;9.244;2022-08-19T07:56:27;20.80;99.40
7194;DHT22;3638;48.820;9.244;2022-08-19T07:58:54;20.70;99.70
7194;DHT22;3638;48.820;9.244;2022-08-19T08:01:23;20.70;99.60
7194;DHT22;3638;48.820;9.244;2022-08-19T08:03:52;20.60;99.90
7194;DHT22;3638;48.820;9.244;2022-08-19T08:06:38;20.70;99.90
7194;DHT22;3638;48.820;9.244;2022-08-19T08:09:26;20.70;99.90
7194;DHT22;3638;48.820;9.244;2022-08-19T08:12:00;20.70;99.90
7194;DHT22;3638;48.820;9.244;2022-08-19T08:14:31;20.60;99.90
7194;DHT22;3638;48.820;9.244;2022-08-19T08:17:01;20.60;99.90
7194;DHT22;3638;48.820;9.244;2022-08-19T08:19:29;20.80;99.90
7194;DHT22;3638;48.820;9.244;2022-08-19T08:21:58;20.60;99.90
7194;DHT22;3638;48.820;9.244;2022-08-19T08:24:26;21.00;99.70
7194;DHT22;3638;48.820;9.244;2022-08-19T08:26:55;21.00;99.50
7194;DHT22;3638;48.820;9.244;2022-08-19T08:29:24;21.20;99.90
7194;DHT22;3638;48.820;9.244;2022-08-19T08:31:51;21.40;99.90
7194;DHT22;3638;48.820;9.244;2022-08-19T08:34:19;21.30;99.90
7194;DHT22;3638;48.820;9.244;2022-08-19T08:36:47;21.30;99.90
7194;DHT22;3638;48.820;9.244;2022-08-19T08:39:15;21.20;99.90
7194;DHT22;3638;48.820;9.244;2022-08-19T08:41:49;21.30;99.90
7194;DHT22;3638;48.820;9.244;2022-08-19T08:44:25;21.30;99.90
7194;DHT22;3638;48.820;9.244;2022-08-19T08:47:01;21.50;99.90
7194;DHT22;3638;48.820;9.244;2022-08-19T08:49:45;21.60;99.90
7194;DHT22;3638;48.820;9.244;2022-08-19T08:52:20;21.80;99.80
7194;DHT22;3638;48.820;9.244;2022-08-19T08:54:51;22.00;99.80
7194;DHT22;3638;48.820;9.244;2022-08-19T08:57:24;22.20;99.00
7194;DHT22;3638;48.820;9.244;2022-08-19T08:59:57;22.70;98.60
7194;DHT22;3638;48.820;9.244;2022-08-19T09:02:25;22.60;98.00
7194;DHT22;3638;48.820;9.244;2022-08-19T09:04:53;22.60;97.80
7194;DHT22;3638;48.820;9.244;2022-08-19T09:07:28;22.50;98.50
7194;DHT22;3638;48.820;9.244;2022-08-19T09:10:06;22.10;98.60
7194;DHT22;3638;48.820;9.244;2022-08-19T09:12:43;22.00;99.60
7194;DHT22;3638;48.820;9.244;2022-08-19T09:15:20;21.80;99.60
7194;DHT22;3638;48.820;9.244;2022-08-19T09:17:49;21.80;99.90
7194;DHT22;3638;48.820;9.244;2022-08-19T09:20:19;21.80;99.90
7194;DHT22;3638;48.820;9.244;2022-08-19T09:22:47;21.60;99.90
7194;DHT22;3638;48.820;9.244;2022-08-19T09:25:17;21.50;99.90
7194;DHT22;3638;48.820;9.244;2022-08-19T09:27:49;21.50;99.90
7194;DHT22;3638;48.820;9.244;2022-08-19T09:30:21;21.50;99.90
7194;DHT22;3638;48.820;9.244;2022-08-19T09:32:50;21.50;99.90
7194;DHT22;3638;48.820;9.244;2022-08-19T09:35:20;21.50;99.90
7194;DHT22;3638;48.820;9.244;2022-08-19T09:37:48;21.40;99.90
7194;DHT22;3638;48.820;9.244;2022-08-19T09:40:17;21.40;99.90
7194;DHT22;3638;48.820;9.244;2022-08-19T09:42:45;21.50;99.90
7194;DHT22;3638;48.820;9.244;2022-08-19T09:45:13;21.50;99.90
7194;DHT22;3638;48.820;9.244;2022-08-19T09:47:43;21.60;99.90
7194;DHT22;3638;48.820;9.244;2022-08-19T09:50:11;21.70;99.90
7194;DHT22;3638;48.820;9.244;2022-08-19T09:52:39;21.70;99.70
7194;DHT22;3638;48.820;9.244;2022-08-19T09:55:09;21.70;99.90
7194;DHT22;3638;48.820;9.244;2022-08-19T09:57:37;21.50;99.90
7194;DHT22;3638;48.820;9.244;2022-08-19T10:00:07;21.50;99.90
7194;DHT22;3638;48.820;9.244;2022-08-19T10:02:35;21.50;99.90
7194;DHT22;3638;48.820;9.244;2022-08-19T10:05:04;21.30;99.90
7194;DHT22;3638;48.820;9.244;2022-08-19T10:07:49;21.20;99.90
7194;DHT22;3638;48.820;9.244;2022-08-19T10:10:17;21.00;99.90
7194;DHT22;3638;48.820;9.244;2022-08-19T10:12:44;21.00;99.90
7194;DHT22;3638;48.820;9.244;2022-08-19T10:15:13;20.90;99.90
7194;DHT22;3638;48.820;9.244;2022-08-19T10:17:41;20.80;99.90
7194;DHT22;3638;48.820;9.244;2022-08-19T10:20:10;20.80;99.90
7194;DHT22;3638;48.820;9.244;2022-08-19T10:22:37;20.90;99.90
7194;DHT22;3638;48.820;9.244;2022-08-19T10:25:05;21.00;99.90
7194;DHT22;3638;48.820;9.244;2022-08-19T10:27:33;21.10;99.90
7194;DHT22;3638;48.820;9.244;2022-08-19T10:32:27;21.20;99.90
7194;DHT22;3638;48.820;9.244;2022-08-19T10:34:55;21.30;99.90
7194;DHT22;3638;48.820;9.244;2022-08-19T10:37:24;21.40;99.90
7194;DHT22;3638;48.820;9.244;2022-08-19T10:39:51;21.50;99.90
7194;DHT22;3638;48.820;9.244;2022-08-19T10:42:18;21.40;99.90
7194;DHT22;3638;48.820;9.244;2022-08-19T10:44:46;21.60;99.90
7194;DHT22;3638;48.820;9.244;2022-08-19T10:47:13;21.70;99.90
7194;DHT22;3638;48.820;9.244;2022-08-19T10:49:40;21.60;99.90
7194;DHT22;3638;48.820;9.244;2022-08-19T10:52:21;21.60;99.90
7194;DHT22;3638;48.820;9.244;2022-08-19T10:55:05;21.60;99.90
7194;DHT22;3638;48.820;9.244;2022-08-19T10:57:50;21.50;99.90
7194;DHT22;3638;48.820;9.244;2022-08-19T11:00:19;21.50;99.90
7194;DHT22;3638;48.820;9.244;2022-08-19T11:02:46;21.50;99.90
7194;DHT22;3638;48.820;9.244;2022-08-19T11:05:13;21.60;99.90
7194;DHT22;3638;48.820;9.244;2022-08-19T11:07:41;21.70;99.90
7194;DHT22;3638;48.820;9.244;2022-08-19T11:10:13;21.80;99.90
7194;DHT22;3638;48.820;9.244;2022-08-19T11:12:44;21.90;99.60
7194;DHT22;3638;48.820;9.244;2022-08-19T11:15:12;22.10;99.80
7194;DHT22;3638;48.820;9.244;2022-08-19T11:17:39;22.00;99.90
7194;DHT22;3638;48.820;9.244;2022-08-19T11:20:10;22.20;99.90
7194;DHT22;3638;48.820;9.244;2022-08-19T11:22:38;22.40;99.70
7194;DHT22;3638;48.820;9.244;2022-08-19T11:25:08;22.50;99.70
7194;DHT22;3638;48.820;9.244;2022-08-19T11:27:38;22.70;99.70
7194;DHT22;3638;48.820;9.244;2022-08-19T11:30:08;22.80;99.90
7194;DHT22;3638;48.820;9.244;2022-08-19T11:32:36;22.90;99.60
7194;DHT22;3638;48.820;9.244;2022-08-19T11:35:05;22.80;99.90
7194;DHT22;3638;48.820;9.244;2022-08-19T11:37:32;22.90;99.90
7194;DHT22;3638;48.820;9.244;2022-08-19T11:40:03;22.90;99.90
7194;DHT22;3638;48.820;9.244;2022-08-19T11:42:32;22.90;99.90
7194;DHT22;3638;48.820;9.244;2022-08-19T11:45:17;24.00;99.90
7194;DHT22;3638;48.820;9.244;2022-08-19T11:47:44;22.80;99.90
7194;DHT22;3638;48.820;9.244;2022-08-19T11:50:12;22.60;99.90
7194;DHT22;3638;48.820;9.244;2022-08-19T11:52:39;22.50;99.30
7194;DHT22;3638;48.820;9.244;2022-08-19T11:55:07;22.40;98.80
7194;DHT22;3638;48.820;9.244;2022-08-19T11:57:36;22.30;99.50
7194;DHT22;3638;48.820;9.244;2022-08-19T12:00:04;22.40;98.60
7194;DHT22;3638;48.820;9.244;2022-08-19T12:02:33;22.30;98.30
7194;DHT22;3638;48.820;9.244;2022-08-19T12:05:00;22.10;98.90
7194;DHT22;3638;48.820;9.244;2022-08-19T12:07:28;22.00;99.20
7194;DHT22;3638;48.820;9.244;2022-08-19T12:09:56;22.00;98.90
7194;DHT22;3638;48.820;9.244;2022-08-19T12:12:23;22.00;99.20
7194;DHT22;3638;48.820;9.244;2022-08-19T12:14:53;22.10;99.10
7194;DHT22;3638;48.820;9.244;2022-08-19T12:17:23;22.10;99.30
7194;DHT22;3638;48.820;9.244;2022-08-19T12:19:51;22.20;99.50
7194;DHT22;3638;48.820;9.244;2022-08-19T12:22:18;22.40;99.20
7194;DHT22;3638;48.820;9.244;2022-08-19T12:24:46;22.40;99.50
7194;DHT22;3638;48.820;9.244;2022-08-19T12:27:13;22.50;99.40
7194;DHT22;3638;48.820;9.244;2022-08-19T12:29:40;22.60;99.20
7194;DHT22;3638;48.820;9.244;2022-08-19T12:32:08;22.60;98.70
7194;DHT22;3638;48.820;9.244;2022-08-19T12:34:35;22.60;98.50
7194;DHT22;3638;48.820;9.244;2022-08-19T12:37:04;22.60;98.90
7194;DHT22;3638;48.820;9.244;2022-08-19T12:39:35;23.00;99.20
7194;DHT22;3638;48.820;9.244;2022-08-19T12:42:04;23.00;99.40
7194;DHT22;3638;48.820;9.244;2022-08-19T12:44:31;22.70;99.90
7194;DHT22;3638;48.820;9.244;2022-08-19T12:46:58;22.50;99.90
7194;DHT22;3638;48.820;9.244;2022-08-19T12:49:28;22.50;99.90
7194;DHT22;3638;48.820;9.244;2022-08-19T12:51:57;22.40;99.90
7194;DHT22;3638;48.820;9.244;2022-08-19T12:54:24;22.20;99.90
7194;DHT22;3638;48.820;9.244;2022-08-19T12:56:51;22.10;99.90
7194;DHT22;3638;48.820;9.244;2022-08-19T12:59:18;22.00;99.90
7194;DHT22;3638;48.820;9.244;2022-08-19T13:01:45;22.00;99.90
7194;DHT22;3638;48.820;9.244;2022-08-19T13:04:12;21.70;99.90
7194;DHT22;3638;48.820;9.244;2022-08-19T13:06:40;21.60;99.90
7194;DHT22;3638;48.820;9.244;2022-08-19T13:09:08;21.70;99.90
7194;DHT22;3638;48.820;9.244;2022-08-19T13:11:36;21.60;99.90
7194;DHT22;3638;48.820;9.244;2022-08-19T13:14:05;21.60;99.90
7194;DHT22;3638;48.820;9.244;2022-08-19T13:16:32;21.60;99.90
7194;DHT22;3638;48.820;9.244;2022-08-19T13:18:59;21.60;99.90
7194;DHT22;3638;48.820;9.244;2022-08-19T13:21:28;21.50;99.90
7194;DHT22;3638;48.820;9.244;2022-08-19T13:23:57;21.50;99.90
7194;DHT22;3638;48.820;9.244;2022-08-19T13:26:24;21.60;99.90
7194;DHT22;3638;48.820;9.244;2022-08-19T13:28:51;21.50;99.90
7194;DHT22;3638;48.820;9.244;2022-08-19T13:31:40;21.60;99.90
7194;DHT22;3638;48.820;9.244;2022-08-19T13:34:29;21.50;99.90
7194;DHT22;3638;48.820;9.244;2022-08-19T13:36:58;21.50;99.90
7194;DHT22;3638;48.820;9.244;2022-08-19T13:39:29;21.30;99.90
7194;DHT22;3638;48.820;9.244;2022-08-19T13:41:58;21.30;99.90
7194;DHT22;3638;48.820;9.244;2022-08-19T13:44:26;21.30;99.90
7194;DHT22;3638;48.820;9.244;2022-08-19T13:46:55;21.20;99.90
7194;DHT22;3638;48.820;9.244;2022-08-19T13:49:30;21.20;99.90
7194;DHT22;3638;48.820;9.244;2022-08-19T13:51:57;21.10;99.90
7194;DHT22;3638;48.820;9.244;2022-08-19T13:54:25;20.90;99.90
7194;DHT22;3638;48.820;9.244;2022-08-19T13:56:54;20.90;99.90
7194;DHT22;3638;48.820;9.244;2022-08-19T13:59:21;20.80;99.90
7194;DHT22;3638;48.820;9.244;2022-08-19T14:01:47;20.80;99.90
7194;DHT22;3638;48.820;9.244;2022-08-19T14:04:15;20.70;99.90
7194;DHT22;3638;48.820;9.244;2022-08-19T14:06:42;20.70;99.90
7194;DHT22;3638;48.820;9.244;2022-08-19T14:09:09;20.60;99.90
7194;DHT22;3638;48.820;9.244;2022-08-19T14:11:36;20.60;99.90
7194;DHT22;3638;48.820;9.244;2022-08-19T14:14:04;20.50;99.90
7194;DHT22;3638;48.820;9.244;2022-08-19T14:16:31;20.40;99.90
7194;DHT22;3638;48.820;9.244;2022-08-19T14:18:58;20.40;99.90
7194;DHT22;3638;48.820;9.244;2022-08-19T14:21:26;20.30;99.90
7194;DHT22;3638;48.820;9.244;2022-08-19T14:23:53;20.50;99.90
7194;DHT22;3638;48.820;9.244;2022-08-19T14:26:21;20.40;99.90
7194;DHT22;3638;48.820;9.244;2022-08-19T14:28:48;20.50;99.90
7194;DHT22;3638;48.820;9.244;2022-08-19T14:31:19;20.50;99.90
7194;DHT22;3638;48.820;9.244;2022-08-19T14:33:49;20.50;99.90
7194;DHT22;3638;48.820;9.244;2022-08-19T14:36:17;20.50;99.90
7194;DHT22;3638;48.820;9.244;2022-08-19T14:38:45;20.60;99.90
7194;DHT22;3638;48.820;9.244;2022-08-19T14:41:14;20.50;99.90
7194;DHT22;3638;48.820;9.244;2022-08-19T14:43:43;20.60;99.90
7194;DHT22;3638;48.820;9.244;2022-08-19T14:46:12;20.50;99.90
7194;DHT22;3638;48.820;9.244;2022-08-19T14:48:42;20.50;99.90
7194;DHT22;3638;48.820;9.244;2022-08-19T14:51:09;20.50;99.90
7194;DHT22;3638;48.820;9.244;2022-08-19T14:53:37;23.60;99.90
7194;DHT22;3638;48.820;9.244;2022-08-19T14:56:08;20.30;99.90
7194;DHT22;3638;48.820;9.244;2022-08-19T14:58:36;20.40;99.90
7194;DHT22;3638;48.820;9.244;2022-08-19T15:03:33;20.40;99.90
7194;DHT22;3638;48.820;9.244;2022-08-19T15:06:02;20.50;99.90
7194;DHT22;3638;48.820;9.244;2022-08-19T15:08:32;20.50;99.90
7194;DHT22;3638;48.820;9.244;2022-08-19T15:11:00;20.70;99.90
7194;DHT22;3638;48.820;9.244;2022-08-19T15:13:29;20.90;99.90
7194;DHT22;3638;48.820;9.244;2022-08-19T15:15:56;21.00;99.90
7194;DHT22;3638;48.820;9.244;2022-08-19T15:18:24;21.00;99.90
7194;DHT22;3638;48.820;9.244;2022-08-19T15:20:51;21.00;99.90
7194;DHT22;3638;48.820;9.244;2022-08-19T15:23:20;21.00;99.90
7194;DHT22;3638;48.820;9.244;2022-08-19T15:25:47;21.00;99.90
7194;DHT22;3638;48.820;9.244;2022-08-19T15:28:18;20.90;99.90
7194;DHT22;3638;48.820;9.244;2022-08-19T15:30:45;20.90;99.90
7194;DHT22;3638;48.820;9.244;2022-08-19T15:33:12;20.90;99.90
7194;DHT22;3638;48.820;9.244;2022-08-19T15:35:41;20.90;99.90
7194;DHT22;3638;48.820;9.244;2022-08-19T15:38:09;20.80;99.90
7194;DHT22;3638;48.820;9.244;2022-08-19T15:40:37;20.80;99.90
7194;DHT22;3638;48.820;9.244;2022-08-19T15:43:04;20.80;99.90
7194;DHT22;3638;48.820;9.244;2022-08-19T15:45:31;20.80;99.90
7194;DHT22;3638;48.820;9.244;2022-08-19T15:47:58;20.90;99.90
7194;DHT22;3638;48.820;9.244;2022-08-19T15:50:26;20.90;99.90
7194;DHT22;3638;48.820;9.244;2022-08-19T15:52:57;21.10;99.90
7194;DHT22;3638;48.820;9.244;2022-08-19T15:55:26;21.10;99.90
7194;DHT22;3638;48.820;9.244;2022-08-19T15:57:58;21.20;99.90
7194;DHT22;3638;48.820;9.244;2022-08-19T16:00:43;21.40;99.90
7194;DHT22;3638;48.820;9.244;2022-08-19T16:03:27;21.60;99.90
7194;DHT22;3638;48.820;9.244;2022-08-19T16:06:12;21.70;99.90
7194;DHT22;3638;48.820;9.244;2022-08-19T16:08:51;21.70;99.90
7194;DHT22;3638;48.820;9.244;2022-08-19T16:11:20;21.70;99.90
7194;DHT22;3638;48.820;9.244;2022-08-19T16:13:52;21.80;99.90
7194;DHT22;3638;48.820;9.244;2022-08-19T16:16:20;21.80;99.90
7194;DHT22;3638;48.820;9.244;2022-08-19T16:18:49;21.90;99.90
7194;DHT22;3638;48.820;9.244;2022-08-19T16:21:18;22.10;99.90
7194;DHT22;3638;48.820;9.244;2022-08-19T16:23:46;22.10;99.90
7194;DHT22;3638;48.820;9.244;2022-08-19T16:26:15;22.10;99.90
7194;DHT22;3638;48.820;9.244;2022-08-19T16:28:45;22.10;99.90
7194;DHT22;3638;48.820;9.244;2022-08-19T16:31:14;22.20;99.90
7194;DHT22;3638;48.820;9.244;2022-08-19T16:33:41;22.20;99.90
7194;DHT22;3638;48.820;9.244;2022-08-19T16:36:09;22.40;99.90
7194;DHT22;3638;48.820;9.244;2022-08-19T16:38:36;22.20;99.90
7194;DHT22;3638;48.820;9.244;2022-08-19T16:41:03;22.30;99.90
7194;DHT22;3638;48.820;9.244;2022-08-19T16:43:30;22.30;99.90
7194;DHT22;3638;48.820;9.244;2022-08-19T16:45:58;22.30;99.90
7194;DHT22;3638;48.820;9.244;2022-08-19T16:48:29;22.30;99.90
7194;DHT22;3638;48.820;9.244;2022-08-19T16:50:58;22.20;99.90
7194;DHT22;3638;48.820;9.244;2022-08-19T16:53:27;22.00;99.90
7194;DHT22;3638;48.820;9.244;2022-08-19T16:55:55;22.20;99.90
7194;DHT22;3638;48.820;9.244;2022-08-19T16:58:23;22.00;99.90
7194;DHT22;3638;48.820;9.244;2022-08-19T17:00:51;22.00;99.90
7194;DHT22;3638;48.820;9.244;2022-08-19T17:03:19;21.90;99.90
7194;DHT22;3638;48.820;9.244;2022-08-19T17:05:50;21.80;99.90
7194;DHT22;3638;48.820;9.244;2022-08-19T17:08:19;21.90;99.90